createdAt,value
2022-10-21T00:00:28.505Z,47.10
2022-10-21T00:04:10.540Z,47.00
2022-10-21T00:07:46.567Z,47.10
2022-10-21T00:11:22.603Z,47.10
2022-10-21T00:14:58.641Z,47.00
2022-10-21T00:18:43.301Z,47.00
2022-10-21T00:22:10.711Z,47.00
2022-10-21T00:25:40.749Z,47.00
2022-10-21T00:32:37.615Z,47.00
2022-10-21T00:35:43.891Z,47.10
2022-10-21T00:38:49.467Z,47.00
2022-10-21T00:42:04.898Z,47.10
2022-10-21T00:45:49.170Z,47.00
2022-10-21T00:49:01.559Z,47.00
2022-10-21T00:52:13.573Z,47.00
2022-10-21T00:55:19.603Z,47.00
2022-10-21T00:58:25.236Z,47.10
2022-10-21T01:01:37.350Z,47.00
2022-10-21T01:04:43.288Z,47.10
2022-10-21T01:07:49.314Z,47.00
2022-10-21T01:10:55.343Z,47.10
2022-10-21T01:14:13.754Z,47.10
2022-10-21T01:17:46.713Z,47.00
2022-10-21T01:21:19.429Z,47.00
2022-10-21T01:24:55.454Z,47.00
2022-10-21T01:28:13.484Z,47.00
2022-10-21T01:31:31.513Z,47.00
2022-10-21T01:34:37.925Z,47.00
2022-10-21T01:37:49.626Z,47.00
2022-10-21T01:41:01.980Z,47.00
2022-10-21T01:44:19.619Z,47.00
2022-10-21T01:47:59.503Z,47.00
2022-10-21T01:51:29.546Z,47.00
2022-10-21T01:54:59.587Z,47.00
2022-10-21T01:58:29.622Z,47.40
2022-10-21T02:02:05.657Z,47.00
2022-10-21T02:05:41.686Z,47.00
2022-10-21T02:09:17.724Z,47.00
2022-10-21T02:12:47.754Z,47.00
2022-10-21T02:15:56.239Z,47.00
2022-10-21T02:19:23.841Z,47.00
2022-10-21T02:23:11.842Z,47.00
2022-10-21T02:26:41.872Z,47.00
2022-10-21T02:30:17.905Z,47.00
2022-10-21T02:33:41.939Z,47.60
2022-10-21T02:37:11.970Z,47.00
2022-10-21T02:40:54.006Z,47.00
2022-10-21T02:49:06.277Z,47.00
2022-10-21T02:52:29.696Z,47.00
2022-10-21T02:56:05.584Z,47.00
2022-10-21T02:59:44.256Z,47.00
2022-10-21T03:03:02.280Z,47.00
2022-10-21T03:06:14.311Z,47.00
2022-10-21T03:09:24.612Z,47.00
2022-10-21T03:12:38.361Z,47.60
2022-10-21T03:15:38.384Z,47.00
2022-10-21T03:18:41.743Z,47.10
2022-10-21T03:21:47.767Z,47.10
2022-10-21T03:24:47.816Z,47.10
2022-10-21T03:27:56.489Z,47.20
2022-10-21T03:30:53.839Z,47.20
2022-10-21T03:33:56.543Z,47.30
2022-10-21T03:36:53.887Z,47.30
2022-10-21T03:39:56.592Z,47.30
2022-10-21T03:42:59.936Z,47.40
2022-10-21T03:45:41.960Z,47.40
2022-10-21T03:48:41.982Z,47.40
2022-10-21T03:51:44.691Z,47.40
2022-10-21T03:54:42.034Z,47.40
2022-10-21T03:57:44.746Z,47.40
2022-10-21T04:00:53.774Z,47.50
2022-10-21T04:03:56.793Z,47.50
2022-10-21T04:06:59.824Z,47.50
2022-10-21T04:10:02.847Z,47.50
2022-10-21T04:13:00.189Z,47.60
2022-10-21T04:15:56.598Z,47.60
2022-10-21T04:18:54.229Z,47.60
2022-10-21T04:26:13.899Z,47.70
2022-10-21T04:42:30.429Z,47.70
2022-10-21T04:45:48.451Z,47.70
2022-10-21T04:48:54.477Z,47.80
2022-10-21T04:52:00.501Z,47.80
2022-10-21T04:55:12.532Z,47.90
2022-10-21T04:58:42.561Z,47.90
2022-10-21T05:01:25.431Z,47.90
2022-10-21T05:03:59.074Z,48.00
2022-10-21T05:06:34.030Z,47.90
2022-10-21T05:09:04.086Z,48.00
2022-10-21T05:11:35.563Z,48.60
2022-10-21T05:14:08.631Z,48.00
2022-10-21T05:16:41.700Z,48.00
2022-10-21T05:19:16.761Z,48.00
2022-10-21T05:21:51.134Z,48.00
2022-10-21T05:24:20.005Z,48.00
2022-10-21T05:26:56.699Z,48.00
2022-10-21T05:29:37.155Z,48.00
2022-10-21T05:32:56.564Z,48.00
2022-10-21T05:35:48.597Z,47.90
2022-10-21T05:38:40.020Z,47.90
2022-10-21T05:41:14.245Z,47.90
2022-10-21T05:43:42.969Z,47.90
2022-10-21T05:46:13.822Z,48.60
2022-10-21T05:48:50.606Z,47.90
2022-10-21T05:51:25.533Z,47.90
2022-10-21T05:54:03.138Z,48.00
2022-10-21T05:56:36.819Z,48.00
2022-10-21T05:59:15.172Z,48.00
2022-10-21T06:01:48.570Z,48.00
2022-10-21T06:04:23.367Z,48.10
2022-10-21T06:06:52.074Z,47.90
2022-10-21T06:09:21.782Z,47.90
2022-10-21T06:11:51.650Z,47.90
2022-10-21T06:14:22.699Z,47.90
2022-10-21T06:17:00.120Z,48.00
2022-10-21T06:19:35.787Z,48.60
2022-10-21T06:22:12.893Z,48.00
2022-10-21T06:24:48.960Z,48.00
2022-10-21T06:27:30.469Z,48.00
2022-10-21T06:30:07.325Z,48.10
2022-10-21T06:32:59.306Z,48.10
2022-10-21T06:35:56.826Z,48.10
2022-10-21T06:38:38.803Z,48.10
2022-10-21T06:41:13.566Z,48.10
2022-10-21T06:43:58.499Z,48.00
2022-10-21T06:46:40.415Z,47.90
2022-10-21T06:52:43.544Z,47.90
2022-10-21T06:55:32.317Z,47.90
2022-10-21T06:58:06.717Z,47.90
2022-10-21T07:00:45.127Z,47.90
2022-10-21T07:03:21.157Z,48.00
2022-10-21T07:06:05.107Z,48.10
2022-10-21T07:08:53.848Z,48.20
2022-10-21T07:11:41.873Z,48.20
2022-10-21T07:14:21.131Z,48.20
2022-10-21T07:17:08.586Z,48.20
2022-10-21T07:20:03.483Z,48.20
2022-10-21T07:22:48.438Z,48.30
2022-10-21T07:25:38.592Z,48.30
2022-10-21T07:28:33.151Z,48.40
2022-10-21T07:31:28.712Z,48.40
2022-10-21T07:34:29.292Z,48.50
2022-10-21T07:37:18.294Z,48.60
2022-10-21T07:40:04.089Z,48.60
2022-10-21T07:42:50.376Z,48.60
2022-10-21T07:45:34.604Z,48.70
2022-10-21T07:48:13.014Z,48.80
2022-10-21T07:51:02.691Z,48.80
2022-10-21T07:53:59.230Z,49.10
2022-10-21T07:56:51.033Z,49.10
2022-10-21T07:59:36.717Z,49.10
2022-10-21T08:02:24.541Z,49.00
2022-10-21T08:05:30.930Z,49.00
2022-10-21T08:08:18.835Z,49.10
2022-10-21T08:11:12.682Z,49.20
2022-10-21T08:14:01.223Z,49.20
2022-10-21T08:16:41.369Z,49.10
2022-10-21T08:19:32.638Z,49.20
2022-10-21T08:22:18.959Z,49.20
2022-10-21T08:24:57.444Z,49.50
2022-10-21T08:27:28.301Z,49.60
2022-10-21T08:30:09.691Z,49.70
2022-10-21T08:32:49.886Z,49.90
2022-10-21T08:35:27.300Z,50.00
2022-10-21T08:38:08.900Z,50.00
2022-10-21T08:40:47.260Z,50.00
2022-10-21T08:43:30.674Z,50.10
2022-10-21T08:46:57.900Z,50.20
2022-10-21T08:52:48.927Z,50.50
2022-10-21T08:55:35.943Z,50.40
2022-10-21T08:58:32.383Z,50.30
2022-10-21T09:01:55.066Z,50.20
2022-10-21T09:05:21.796Z,50.70
2022-10-21T09:08:19.603Z,50.70
2022-10-21T09:11:10.166Z,50.60
2022-10-21T09:14:24.879Z,50.70
2022-10-21T09:17:30.088Z,50.80
2022-10-21T09:21:05.498Z,50.70
2022-10-21T09:23:58.330Z,50.80
2022-10-21T09:26:42.862Z,51.00
2022-10-21T09:29:34.329Z,51.00
2022-10-21T09:32:22.451Z,51.00
2022-10-21T09:35:06.809Z,51.10
2022-10-21T09:37:57.396Z,51.00
2022-10-21T09:40:43.917Z,51.10
2022-10-21T09:43:34.460Z,51.30
2022-10-21T09:46:10.539Z,51.30
2022-10-21T09:49:14.350Z,51.30
2022-10-21T09:51:43.119Z,51.30
2022-10-21T09:54:47.307Z,51.30
2022-10-21T09:57:19.920Z,51.20
2022-10-21T10:00:11.037Z,51.20
2022-10-21T10:02:51.509Z,51.40
2022-10-21T10:05:47.936Z,51.40
2022-10-21T10:08:42.166Z,51.50
2022-10-21T10:11:35.578Z,51.50
2022-10-21T10:14:37.405Z,51.50
2022-10-21T10:17:31.023Z,51.60
2022-10-21T10:20:29.793Z,51.40
2022-10-21T10:23:18.866Z,51.50
2022-10-21T10:25:53.578Z,51.60
2022-10-21T10:28:32.363Z,51.50
2022-10-21T10:31:13.397Z,51.50
2022-10-21T10:33:58.932Z,51.60
2022-10-21T10:39:50.958Z,51.50
2022-10-21T10:42:32.248Z,51.60
2022-10-21T10:45:20.882Z,51.70
2022-10-21T10:48:22.858Z,51.60
2022-10-21T10:51:14.822Z,51.40
2022-10-21T10:54:17.984Z,51.70
2022-10-21T10:57:02.966Z,51.60
2022-10-21T11:00:06.822Z,51.60
2022-10-21T11:03:12.354Z,51.40
2022-10-21T11:05:47.552Z,51.30
2022-10-21T11:08:38.139Z,51.10
2022-10-21T11:11:23.264Z,51.10
2022-10-21T11:14:08.799Z,51.10
2022-10-21T11:17:42.235Z,51.00
2022-10-21T11:20:49.874Z,51.10
2022-10-21T11:23:57.790Z,51.00
2022-10-21T11:26:37.556Z,51.00
2022-10-21T11:29:21.843Z,50.90
2022-10-21T11:32:33.982Z,50.90
2022-10-21T11:36:02.065Z,51.00
2022-10-21T11:39:21.470Z,51.00
2022-10-21T11:42:55.442Z,50.80
2022-10-21T11:46:04.750Z,50.80
2022-10-21T11:49:24.944Z,50.80
2022-10-21T11:52:50.628Z,50.70
2022-10-21T11:56:27.949Z,51.30
2022-10-21T11:59:32.578Z,50.60
2022-10-21T12:02:36.813Z,50.50
2022-10-21T12:08:50.840Z,50.50
2022-10-21T12:11:27.898Z,50.40
2022-10-21T12:14:28.811Z,50.40
2022-10-21T12:17:10.769Z,50.60
2022-10-21T12:19:40.560Z,50.50
2022-10-21T12:22:12.919Z,50.30
2022-10-21T12:24:52.256Z,50.50
2022-10-21T12:27:34.769Z,50.50
2022-10-21T12:30:18.037Z,50.40
2022-10-21T12:33:16.366Z,50.40
2022-10-21T12:36:04.320Z,50.50
2022-10-21T12:38:56.142Z,50.40
2022-10-21T12:41:46.492Z,50.20
2022-10-21T12:44:34.274Z,50.20
2022-10-21T12:47:38.759Z,50.00
2022-10-21T12:50:26.533Z,50.00
2022-10-21T12:53:31.885Z,49.90
2022-10-21T12:56:12.650Z,49.90
2022-10-21T12:58:45.969Z,49.80
2022-10-21T13:01:39.046Z,49.70
2022-10-21T13:05:02.986Z,49.70
2022-10-21T13:08:40.485Z,49.70
2022-10-21T13:11:55.465Z,49.60
2022-10-21T13:14:55.489Z,49.60
2022-10-21T13:18:01.574Z,49.50
2022-10-21T13:21:11.023Z,49.50
2022-10-21T13:24:16.895Z,49.40
2022-10-21T13:27:06.236Z,49.40
2022-10-21T13:30:04.578Z,49.40
2022-10-21T13:32:52.121Z,49.40
2022-10-21T13:35:45.405Z,49.50
2022-10-21T13:38:45.321Z,49.40
2022-10-21T13:41:45.360Z,49.40
2022-10-21T13:44:34.693Z,49.50
2022-10-21T13:47:51.087Z,49.50
2022-10-21T13:50:45.428Z,49.50
2022-10-21T13:53:52.834Z,49.50
2022-10-21T13:56:58.806Z,49.50
2022-10-21T13:59:58.838Z,49.40
2022-10-21T14:02:51.549Z,49.50
2022-10-21T14:06:01.991Z,49.50
2022-10-21T14:08:51.656Z,49.50
2022-10-21T14:11:45.635Z,49.40
2022-10-21T14:14:39.119Z,49.50
2022-10-21T14:17:30.437Z,49.40
2022-10-21T14:20:22.687Z,49.40
2022-10-21T14:23:20.142Z,49.30
2022-10-21T14:26:09.774Z,49.30
2022-10-21T14:29:16.657Z,49.20
2022-10-21T14:32:01.065Z,49.20
2022-10-21T14:35:27.661Z,49.30
2022-10-21T14:38:41.211Z,49.20
2022-10-21T14:41:47.243Z,49.30
2022-10-21T14:44:32.312Z,49.30
2022-10-21T14:47:37.404Z,49.20
2022-10-21T14:50:47.375Z,49.20
2022-10-21T14:53:53.410Z,49.30
2022-10-21T14:57:04.090Z,49.30
2022-10-21T14:59:54.338Z,49.20
2022-10-21T15:02:59.510Z,49.10
2022-10-21T15:06:05.488Z,49.10
2022-10-21T15:09:23.572Z,49.00
2022-10-21T15:12:35.597Z,49.10
2022-10-21T15:16:10.982Z,49.10
2022-10-21T15:19:29.666Z,49.00
2022-10-21T15:22:40.967Z,48.90
2022-10-21T15:25:47.695Z,49.00
2022-10-21T15:28:50.959Z,48.90
2022-10-21T15:31:50.951Z,48.80
2022-10-21T15:35:05.764Z,48.80
2022-10-21T15:38:17.826Z,48.90
2022-10-21T15:41:29.825Z,48.80
2022-10-21T15:45:02.804Z,48.90
2022-10-21T15:48:20.926Z,48.80
2022-10-21T15:51:26.867Z,48.70
2022-10-21T15:54:18.852Z,48.60
2022-10-21T15:57:30.907Z,48.60
2022-10-21T16:00:48.024Z,48.60
2022-10-21T16:04:02.974Z,48.50
2022-10-21T16:07:18.090Z,48.50
2022-10-21T16:10:24.089Z,48.40
2022-10-21T16:13:25.702Z,48.40
2022-10-21T16:16:33.078Z,48.40
2022-10-21T16:19:48.187Z,48.40
2022-10-21T16:22:48.223Z,48.30
2022-10-21T16:26:06.246Z,48.30
2022-10-21T16:29:27.189Z,48.20
2022-10-21T16:32:39.391Z,48.30
2022-10-21T16:35:57.239Z,48.10
2022-10-21T16:40:03.271Z,48.10
2022-10-21T16:47:51.336Z,48.00
2022-10-21T17:38:03.662Z,48.00
2022-10-21T17:45:15.731Z,48.00
2022-10-21T17:48:45.765Z,48.00
2022-10-21T17:52:15.816Z,48.00
2022-10-21T17:55:45.840Z,48.00
2022-10-21T17:59:05.027Z,48.00
2022-10-21T18:02:11.362Z,47.90
2022-10-21T18:05:23.108Z,47.90
2022-10-21T18:08:30.065Z,47.80
2022-10-21T18:11:40.851Z,47.90
2022-10-21T18:14:53.189Z,47.90
2022-10-21T18:18:05.161Z,47.80
2022-10-21T18:21:11.245Z,47.90
2022-10-21T18:24:23.211Z,47.80
2022-10-21T18:27:29.295Z,47.80
2022-10-21T18:30:53.264Z,47.80
2022-10-21T18:33:59.358Z,47.70
2022-10-21T18:37:11.321Z,47.80
2022-10-21T18:40:17.407Z,47.80
2022-10-21T18:43:23.372Z,47.80
2022-10-21T18:46:35.459Z,47.80
2022-10-21T18:49:47.427Z,47.80
2022-10-21T18:52:53.511Z,47.80
2022-10-21T18:56:05.479Z,47.80
2022-10-21T18:59:11.568Z,47.70
2022-10-21T19:02:29.530Z,47.70
2022-10-21T19:05:41.622Z,47.70
2022-10-21T19:08:53.617Z,47.70
2022-10-21T19:12:07.048Z,47.70
2022-10-21T19:15:23.640Z,47.70
2022-10-21T19:18:53.676Z,47.70
2022-10-21T19:22:05.702Z,47.70
2022-10-21T19:25:17.793Z,47.60
2022-10-21T19:28:29.751Z,47.60
2022-10-21T19:31:41.938Z,47.70
2022-10-21T19:35:05.579Z,47.60
2022-10-21T19:38:26.316Z,47.60
2022-10-21T19:41:41.644Z,47.70
2022-10-21T19:45:05.676Z,47.60
2022-10-21T19:48:23.706Z,47.60
2022-10-21T19:51:42.039Z,47.60
2022-10-21T19:54:54.013Z,47.60
2022-10-21T19:58:06.097Z,47.60
2022-10-21T20:01:18.112Z,47.60
2022-10-21T20:04:32.491Z,47.60
2022-10-21T20:07:54.135Z,47.60
2022-10-21T20:11:24.167Z,47.60
2022-10-21T20:14:36.189Z,47.60
2022-10-21T20:17:48.269Z,47.60
2022-10-21T20:21:00.244Z,47.60
2022-10-21T20:24:18.327Z,47.60
2022-10-21T20:27:30.302Z,47.60
2022-10-21T20:30:42.391Z,47.60
2022-10-21T20:33:54.354Z,47.60
2022-10-21T20:37:06.446Z,47.60
2022-10-21T20:40:30.173Z,47.60
2022-10-21T20:43:42.503Z,47.50
2022-10-21T20:46:54.469Z,47.60
2022-10-21T20:50:06.556Z,47.60
2022-10-21T20:53:18.586Z,47.60
2022-10-21T20:56:42.614Z,47.60
2022-10-21T20:59:54.580Z,47.60
2022-10-21T21:03:12.611Z,47.60
2022-10-21T21:06:36.636Z,47.60
2022-10-21T21:10:06.213Z,47.60
2022-10-21T21:13:43.517Z,47.60
2022-10-21T21:20:42.759Z,47.60
2022-10-21T21:24:11.880Z,47.60
2022-10-21T21:27:36.820Z,47.60
2022-10-21T21:31:23.962Z,47.60
2022-10-21T21:34:48.879Z,47.60
2022-10-21T21:42:18.946Z,47.70
2022-10-21T22:32:09.400Z,47.60
2022-10-21T22:40:15.080Z,47.60
2022-10-21T23:04:32.687Z,47.60
